createdAt,value
2019-03-26T00:02:21.934Z,61.92
2019-03-26T00:04:53.703Z,62.18
2019-03-26T00:07:42.460Z,63.01
2019-03-26T00:10:12.397Z,63.01
2019-03-26T00:13:20.004Z,62.93
2019-03-26T00:15:50.861Z,63.43
2019-03-26T00:21:28.561Z,63.44
2019-03-26T00:26:47.548Z,63.20
2019-03-26T00:29:36.564Z,63.25
2019-03-26T00:32:06.680Z,63.25
2019-03-26T00:34:37.108Z,63.63
2019-03-26T00:37:09.586Z,63.77
2019-03-26T00:39:39.716Z,63.83
2019-03-26T00:42:28.494Z,63.97
2019-03-26T00:45:09.311Z,64.41
2019-03-26T00:47:40.169Z,64.41
2019-03-26T00:50:10.222Z,64.21
2019-03-26T00:52:40.366Z,64.38
2019-03-26T00:55:21.906Z,64.50
2019-03-26T00:57:42.564Z,64.54
2019-03-26T01:00:12.991Z,64.75
2019-03-26T01:02:43.028Z,65.16
2019-03-26T01:05:13.261Z,65.16
2019-03-26T01:07:43.217Z,64.96
2019-03-26T01:10:53.202Z,65.20
2019-03-26T01:13:34.146Z,65.59
2019-03-26T01:16:04.942Z,65.59
2019-03-26T01:18:53.665Z,65.20
2019-03-26T01:21:23.676Z,65.20
2019-03-26T01:23:53.632Z,65.40
2019-03-26T01:26:23.604Z,65.40
2019-03-26T01:28:53.960Z,65.44
2019-03-26T01:31:23.901Z,65.44
2019-03-26T01:33:53.870Z,65.54
2019-03-26T01:36:42.715Z,65.76
2019-03-26T01:42:07.545Z,65.81
2019-03-26T01:44:37.484Z,65.96
2019-03-26T01:47:08.235Z,66.16
2019-03-26T01:49:49.019Z,66.07
2019-03-26T01:55:21.155Z,66.24
2019-03-26T01:58:10.193Z,66.47
2019-03-26T02:00:51.698Z,66.92
2019-03-26T02:03:32.722Z,66.92
2019-03-26T02:06:03.452Z,67.12
2019-03-26T02:08:33.416Z,67.37
2019-03-26T02:11:03.555Z,67.37
2019-03-26T02:13:33.578Z,67.92
2019-03-26T02:16:08.911Z,68.03
2019-03-26T02:21:33.671Z,68.50
2019-03-26T02:24:04.030Z,68.94
2019-03-26T02:26:33.962Z,68.83
2019-03-26T02:29:08.061Z,68.85
2019-03-26T02:31:56.933Z,68.61
2019-03-26T02:34:26.864Z,68.61
2019-03-26T02:36:56.810Z,68.08
2019-03-26T02:39:26.834Z,68.08
2019-03-26T02:41:56.827Z,67.44
2019-03-26T02:44:26.829Z,67.44
2019-03-26T02:46:56.898Z,66.91
2019-03-26T02:49:31.418Z,66.77
2019-03-26T02:52:01.431Z,66.11
2019-03-26T02:54:31.405Z,66.11
2019-03-26T02:57:01.367Z,65.58
2019-03-26T02:59:50.216Z,65.76
2019-03-26T03:02:39.118Z,65.22
2019-03-26T03:05:10.189Z,65.22
2019-03-26T03:07:40.142Z,65.35
2019-03-26T03:10:18.733Z,64.70
2019-03-26T03:12:48.777Z,64.50
2019-03-26T03:15:19.038Z,64.08
2019-03-26T03:20:42.715Z,63.62
2019-03-26T03:23:13.115Z,63.85
2019-03-26T03:25:43.196Z,63.85
2019-03-26T03:28:13.349Z,63.12
2019-03-26T03:31:02.139Z,62.64
2019-03-26T03:33:32.130Z,62.64
2019-03-26T03:36:02.054Z,62.20
2019-03-26T03:38:50.909Z,62.18
2019-03-26T03:41:31.398Z,61.79
2019-03-26T03:44:01.420Z,61.15
2019-03-26T03:46:31.993Z,60.48
2019-03-26T03:49:41.215Z,58.83
2019-03-26T03:52:12.946Z,58.83
2019-03-26T03:55:03.079Z,57.96
2019-03-26T04:06:22.679Z,55.05
2019-03-26T04:09:03.279Z,54.24
2019-03-26T04:14:15.011Z,53.32
2019-03-26T04:16:47.053Z,52.31
2019-03-26T04:19:17.077Z,52.22
2019-03-26T04:21:47.114Z,52.22
2019-03-26T04:24:19.005Z,51.33
2019-03-26T04:27:07.722Z,50.53
2019-03-26T04:29:37.724Z,50.00
2019-03-26T04:32:07.652Z,50.00
2019-03-26T04:34:56.355Z,49.53
2019-03-26T04:37:26.319Z,49.53
2019-03-26T04:40:17.473Z,49.09
2019-03-26T04:43:06.282Z,48.50
2019-03-26T04:45:36.245Z,48.50
2019-03-26T04:48:25.066Z,48.43
2019-03-26T04:50:55.056Z,48.43
2019-03-26T04:53:28.049Z,48.48
2019-03-26T04:55:58.004Z,48.30
2019-03-26T04:58:29.450Z,48.67
2019-03-26T05:00:59.519Z,48.76
2019-03-26T05:03:36.980Z,48.95
2019-03-26T05:06:18.191Z,49.20
2019-03-26T05:08:48.284Z,49.25
2019-03-26T05:11:20.435Z,49.42
2019-03-26T05:14:09.383Z,49.24
2019-03-26T05:19:28.435Z,49.14
2019-03-26T05:21:58.427Z,49.14
2019-03-26T05:24:28.827Z,48.38
2019-03-26T05:26:58.794Z,48.15
2019-03-26T05:29:49.239Z,48.32
2019-03-26T05:32:19.268Z,47.88
2019-03-26T05:34:49.216Z,47.42
2019-03-26T05:37:19.125Z,47.42
2019-03-26T05:39:49.126Z,47.60
2019-03-26T05:42:20.828Z,46.92
2019-03-26T05:44:54.534Z,46.92
2019-03-26T05:47:24.559Z,47.11
2019-03-26T05:49:54.476Z,47.17
2019-03-26T05:52:24.415Z,47.25
2019-03-26T05:54:54.343Z,46.57
2019-03-26T05:57:24.292Z,47.02
2019-03-26T05:59:57.354Z,46.51
2019-03-26T06:02:27.277Z,46.34
2019-03-26T06:04:57.211Z,46.52
2019-03-26T06:07:37.704Z,46.27
2019-03-26T06:13:11.037Z,45.94
2019-03-26T06:21:35.731Z,45.41
2019-03-26T06:27:00.352Z,45.59
2019-03-26T06:29:30.816Z,45.03
2019-03-26T06:32:00.908Z,45.31
2019-03-26T06:34:32.918Z,45.09
2019-03-26T06:37:21.782Z,45.01
2019-03-26T06:40:03.132Z,44.89
2019-03-26T06:42:33.178Z,44.89
2019-03-26T06:45:03.126Z,44.77
2019-03-26T06:47:33.112Z,44.90
2019-03-26T06:50:06.304Z,44.94
2019-03-26T06:52:36.268Z,44.62
2019-03-26T06:55:08.767Z,44.56
2019-03-26T06:57:38.823Z,44.11
2019-03-26T07:00:29.339Z,43.84
2019-03-26T07:03:20.870Z,43.84
2019-03-26T07:06:09.873Z,44.08
2019-03-26T07:08:51.064Z,44.08
2019-03-26T07:11:23.074Z,43.87
2019-03-26T07:13:52.973Z,43.63
2019-03-26T07:16:22.910Z,43.67
2019-03-26T07:18:52.841Z,43.51
2019-03-26T07:21:22.809Z,43.25
2019-03-26T07:23:52.743Z,43.39
2019-03-26T07:26:22.701Z,42.94
2019-03-26T07:32:05.316Z,43.14
2019-03-26T07:34:56.247Z,42.36
2019-03-26T07:37:26.179Z,41.52
2019-03-26T07:39:56.108Z,41.07
2019-03-26T07:42:26.041Z,40.51
2019-03-26T07:45:16.495Z,40.39
2019-03-26T07:47:46.602Z,40.02
2019-03-26T07:50:36.830Z,40.12
2019-03-26T07:56:08.149Z,40.26
2019-03-26T07:58:49.391Z,39.53
2019-03-26T08:01:19.367Z,39.58
2019-03-26T08:03:59.263Z,39.73
2019-03-26T08:06:49.606Z,40.09
2019-03-26T08:12:16.223Z,40.74
2019-03-26T08:14:46.145Z,40.93
2019-03-26T08:17:16.074Z,41.21
2019-03-26T08:19:49.797Z,41.45
2019-03-26T08:22:38.601Z,40.89
2019-03-26T08:25:19.829Z,40.62
2019-03-26T08:27:50.070Z,40.42
2019-03-26T08:30:19.982Z,40.51
2019-03-26T08:32:50.163Z,40.97
2019-03-26T08:35:20.099Z,41.27
2019-03-26T08:37:50.232Z,41.23
2019-03-26T08:42:58.190Z,41.81
2019-03-26T08:45:38.948Z,41.42
2019-03-26T08:48:20.535Z,41.86
2019-03-26T08:51:02.728Z,41.84
2019-03-26T08:53:51.413Z,41.16
2019-03-26T08:56:21.447Z,40.88
2019-03-26T08:58:51.650Z,40.88
2019-03-26T09:01:21.612Z,40.82
2019-03-26T09:03:55.882Z,40.67
2019-03-26T09:06:25.821Z,39.88
2019-03-26T09:08:55.767Z,39.14
2019-03-26T09:11:25.702Z,39.24
2019-03-26T09:13:55.632Z,39.51
2019-03-26T09:16:25.561Z,39.91
2019-03-26T09:18:55.885Z,38.69
2019-03-26T09:21:25.827Z,39.32
2019-03-26T09:23:55.755Z,39.23
2019-03-26T09:26:25.738Z,39.51
2019-03-26T09:28:55.672Z,39.96
2019-03-26T09:31:44.341Z,39.90
2019-03-26T09:37:09.103Z,39.26
2019-03-26T09:39:39.378Z,39.75
2019-03-26T09:42:09.320Z,39.83
2019-03-26T09:44:39.273Z,38.91
2019-03-26T09:47:15.976Z,39.65
2019-03-26T09:49:42.554Z,40.10
2019-03-26T09:54:48.438Z,38.98
2019-03-26T10:03:19.377Z,39.27
2019-03-26T10:05:49.354Z,38.76
2019-03-26T10:08:19.307Z,38.93
2019-03-26T10:11:08.193Z,38.23
2019-03-26T10:13:56.975Z,37.76
2019-03-26T10:16:27.007Z,37.65
2019-03-26T10:18:56.971Z,37.88
2019-03-26T10:21:26.888Z,38.47
2019-03-26T10:23:56.859Z,38.82
2019-03-26T10:26:26.772Z,37.98
2019-03-26T10:28:56.715Z,38.63
2019-03-26T10:31:26.660Z,38.86
2019-03-26T10:33:56.579Z,38.97
2019-03-26T10:36:46.658Z,39.64
2019-03-26T10:39:16.790Z,38.90
2019-03-26T10:41:46.740Z,38.32
2019-03-26T10:46:52.459Z,38.19
2019-03-26T10:49:22.423Z,37.76
2019-03-26T10:51:52.399Z,36.72
2019-03-26T10:54:22.329Z,36.59
2019-03-26T10:57:15.903Z,36.37
2019-03-26T10:59:46.136Z,36.65
2019-03-26T11:02:16.081Z,36.49
2019-03-26T11:04:46.055Z,36.26
2019-03-26T11:07:16.150Z,35.64
2019-03-26T11:09:46.165Z,35.79
2019-03-26T11:12:25.068Z,35.90
2019-03-26T11:14:55.150Z,36.48
2019-03-26T11:17:25.064Z,36.24
2019-03-26T11:20:14.021Z,36.39
2019-03-26T11:22:44.175Z,35.79
2019-03-26T11:25:17.127Z,36.46
2019-03-26T11:27:47.410Z,36.43
2019-03-26T11:30:18.174Z,35.41
2019-03-26T11:32:48.092Z,36.41
2019-03-26T11:35:19.074Z,36.65
2019-03-26T11:37:49.034Z,36.44
2019-03-26T11:40:19.171Z,36.54
2019-03-26T11:42:49.195Z,36.44
2019-03-26T11:45:19.250Z,35.73
2019-03-26T11:47:49.397Z,35.88
2019-03-26T11:50:20.466Z,36.26
2019-03-26T11:52:50.399Z,36.45
2019-03-26T11:55:21.795Z,36.26
2019-03-26T12:00:39.240Z,35.49
2019-03-26T12:03:09.244Z,35.85
2019-03-26T12:08:52.566Z,36.61
2019-03-26T12:11:22.547Z,36.00
2019-03-26T12:13:52.480Z,35.71
2019-03-26T12:16:22.500Z,35.78
2019-03-26T12:18:52.425Z,35.18
2019-03-26T12:21:22.371Z,34.87
2019-03-26T12:23:52.397Z,34.82
2019-03-26T12:26:22.321Z,33.94
2019-03-26T12:28:52.277Z,34.68
2019-03-26T12:31:22.244Z,34.30
2019-03-26T12:37:01.435Z,34.78
2019-03-26T12:39:31.473Z,34.68
2019-03-26T12:42:01.449Z,34.49
2019-03-26T12:44:31.500Z,34.91
2019-03-26T12:47:01.412Z,34.70
2019-03-26T12:49:31.329Z,34.12
2019-03-26T12:52:21.553Z,34.10
2019-03-26T12:55:02.246Z,34.52
2019-03-26T12:57:32.290Z,35.36
2019-03-26T13:00:02.295Z,35.74
2019-03-26T13:02:35.653Z,36.19
2019-03-26T13:05:04.180Z,35.90
2019-03-26T13:07:34.252Z,35.33
2019-03-26T13:10:13.360Z,35.41
2019-03-26T13:12:36.251Z,35.54
2019-03-26T13:15:06.522Z,35.91
2019-03-26T13:17:36.571Z,35.82
2019-03-26T13:23:02.566Z,34.30
2019-03-26T13:25:32.580Z,34.58
2019-03-26T13:28:02.670Z,34.86
2019-03-26T13:30:32.738Z,34.36
2019-03-26T13:33:02.739Z,34.66
2019-03-26T13:35:32.694Z,34.72
2019-03-26T13:40:38.296Z,34.88
2019-03-26T13:45:50.031Z,34.48
2019-03-26T13:48:20.047Z,34.44
2019-03-26T13:51:09.027Z,34.31
2019-03-26T13:53:50.517Z,34.76
2019-03-26T13:56:20.591Z,34.84
2019-03-26T13:58:50.504Z,34.60
2019-03-26T14:01:20.580Z,34.67
2019-03-26T14:03:50.609Z,34.43
2019-03-26T14:06:20.559Z,33.97
2019-03-26T14:08:50.495Z,33.62
2019-03-26T14:11:20.929Z,33.63
2019-03-26T14:16:39.992Z,33.71
2019-03-26T14:19:09.940Z,33.47
2019-03-26T14:21:40.200Z,33.74
2019-03-26T14:24:13.144Z,33.77
2019-03-26T14:26:42.304Z,33.86
2019-03-26T14:29:12.254Z,33.84
2019-03-26T14:31:44.939Z,33.73
2019-03-26T14:34:14.995Z,33.63
2019-03-26T14:36:47.362Z,33.69
2019-03-26T14:39:17.450Z,33.33
2019-03-26T14:42:06.254Z,33.26
2019-03-26T14:44:36.568Z,32.73
2019-03-26T14:47:06.555Z,32.92
2019-03-26T14:49:37.301Z,33.01
2019-03-26T14:52:07.558Z,33.13
2019-03-26T14:54:37.587Z,33.21
2019-03-26T14:57:07.683Z,32.90
2019-03-26T14:59:37.752Z,33.07
2019-03-26T15:02:07.868Z,32.84
2019-03-26T15:04:37.836Z,33.05
2019-03-26T15:07:07.962Z,32.93
2019-03-26T15:09:39.354Z,32.67
2019-03-26T15:12:09.359Z,32.57
2019-03-26T15:14:39.352Z,32.72
2019-03-26T15:17:09.309Z,32.83
2019-03-26T15:22:36.243Z,32.65
2019-03-26T15:25:06.484Z,32.50
2019-03-26T15:27:36.521Z,32.51
2019-03-26T15:30:25.687Z,32.43
2019-03-26T15:33:06.433Z,32.74
2019-03-26T15:35:56.719Z,32.83
2019-03-26T15:38:26.676Z,33.02
2019-03-26T15:40:56.598Z,33.23
2019-03-26T15:43:26.582Z,33.41
2019-03-26T15:45:56.567Z,33.19
2019-03-26T15:48:26.590Z,33.14
2019-03-26T15:50:56.641Z,33.36
2019-03-26T15:53:26.551Z,33.60
2019-03-26T15:56:15.247Z,33.69
2019-03-26T15:58:45.329Z,33.48
2019-03-26T16:01:15.368Z,33.65
2019-03-26T16:03:45.442Z,33.96
2019-03-26T16:06:15.379Z,34.18
2019-03-26T16:08:45.498Z,34.40
2019-03-26T16:11:15.585Z,34.70
2019-03-26T16:13:47.562Z,34.93
2019-03-26T16:16:36.196Z,35.23
2019-03-26T16:19:06.482Z,35.40
2019-03-26T16:21:36.799Z,35.90
2019-03-26T16:24:07.011Z,36.14
2019-03-26T16:26:39.234Z,36.43
2019-03-26T16:29:09.287Z,36.48
2019-03-26T16:31:58.024Z,36.40
2019-03-26T16:39:58.737Z,36.98
2019-03-26T16:42:28.677Z,37.26
2019-03-26T16:44:58.720Z,37.77
2019-03-26T16:47:28.931Z,38.20
2019-03-26T16:49:58.854Z,38.54
2019-03-26T16:52:28.766Z,39.02
2019-03-26T16:54:58.771Z,39.51
2019-03-26T16:57:28.728Z,40.21
2019-03-26T16:59:58.696Z,41.11
2019-03-26T17:02:28.687Z,41.91
2019-03-26T17:04:58.684Z,42.54
2019-03-26T17:07:28.604Z,43.18
2019-03-26T17:09:58.621Z,43.72
2019-03-26T17:12:28.547Z,44.26
2019-03-26T17:14:59.222Z,44.77
2019-03-26T17:20:16.447Z,45.71
2019-03-26T17:22:46.565Z,46.01
2019-03-26T17:25:16.643Z,46.70
2019-03-26T17:27:46.879Z,46.70
2019-03-26T17:30:19.381Z,47.48
2019-03-26T17:32:49.534Z,47.48
2019-03-26T17:35:19.464Z,47.97
2019-03-26T17:37:59.488Z,47.97
2019-03-26T17:40:21.427Z,48.34
2019-03-26T17:42:51.451Z,48.57
2019-03-26T17:45:40.225Z,48.99
2019-03-26T17:48:28.797Z,48.99
2019-03-26T17:50:58.827Z,49.20
2019-03-26T17:53:28.991Z,49.36
2019-03-26T17:56:17.748Z,49.00
2019-03-26T17:59:06.686Z,49.39
2019-03-26T18:01:47.649Z,50.03
2019-03-26T18:04:17.756Z,50.03
2019-03-26T18:06:47.688Z,50.19
2019-03-26T18:12:13.068Z,50.63
2019-03-26T18:14:43.126Z,50.80
2019-03-26T18:17:16.789Z,51.16
2019-03-26T18:19:46.827Z,51.40
2019-03-26T18:22:17.159Z,51.60
2019-03-26T18:24:47.119Z,51.70
2019-03-26T18:27:17.091Z,51.86
2019-03-26T18:30:09.213Z,51.89
2019-03-26T18:32:39.289Z,52.32
2019-03-26T18:35:09.441Z,52.32
2019-03-26T18:37:39.377Z,52.44
2019-03-26T18:40:48.345Z,52.44
2019-03-26T18:43:18.421Z,53.03
2019-03-26T18:45:48.403Z,53.24
2019-03-26T18:48:24.317Z,53.38
2019-03-26T18:50:54.201Z,53.65
2019-03-26T18:53:24.261Z,53.78
2019-03-26T18:56:13.081Z,54.06
2019-03-26T19:01:26.263Z,53.92
2019-03-26T19:04:15.121Z,54.31
2019-03-26T19:07:03.784Z,54.31
2019-03-26T19:09:33.724Z,54.30
2019-03-26T19:12:03.679Z,54.40
2019-03-26T19:14:33.757Z,54.37
2019-03-26T19:17:03.713Z,54.52
2019-03-26T19:19:33.699Z,54.41
2019-03-26T19:22:03.693Z,54.59
2019-03-26T19:27:33.069Z,54.65
2019-03-26T19:32:47.916Z,54.77
2019-03-26T19:35:29.182Z,54.81
2019-03-26T19:40:35.056Z,54.96
2019-03-26T19:43:11.382Z,54.91
2019-03-26T19:45:37.103Z,55.03
2019-03-26T19:48:08.151Z,55.03
2019-03-26T19:50:38.134Z,55.06
2019-03-26T19:53:08.483Z,55.08
2019-03-26T19:55:38.735Z,55.05
2019-03-26T19:58:09.480Z,55.13
2019-03-26T20:00:39.428Z,55.12
2019-03-26T20:03:09.517Z,55.21
2019-03-26T20:05:39.482Z,55.22
2019-03-26T20:08:09.398Z,55.22
2019-03-26T20:10:39.363Z,55.18
2019-03-26T20:13:09.278Z,55.05
2019-03-26T20:15:39.365Z,55.03
2019-03-26T20:18:09.415Z,55.02
2019-03-26T20:20:39.363Z,55.10
2019-03-26T20:23:09.311Z,55.13
2019-03-26T20:25:39.317Z,55.36
2019-03-26T20:28:09.368Z,55.78
2019-03-26T20:30:39.377Z,55.85
2019-03-26T20:33:09.432Z,55.97
2019-03-26T20:35:39.384Z,56.14
2019-03-26T20:40:59.471Z,56.03
2019-03-26T20:43:37.282Z,56.03
2019-03-26T20:46:01.412Z,56.09
2019-03-26T20:48:42.784Z,56.10
2019-03-26T20:51:12.719Z,55.94
2019-03-26T20:53:42.696Z,55.82
2019-03-26T20:56:12.685Z,56.05
2019-03-26T20:59:02.765Z,56.28
2019-03-26T21:01:32.724Z,56.28
2019-03-26T21:06:52.325Z,56.00
2019-03-26T21:09:22.287Z,56.00
2019-03-26T21:11:52.844Z,56.27
2019-03-26T21:14:22.886Z,56.27
2019-03-26T21:16:52.823Z,56.03
2019-03-26T21:19:22.830Z,56.07
2019-03-26T21:21:53.251Z,56.18
2019-03-26T21:24:23.180Z,56.33
2019-03-26T21:26:53.197Z,56.43
2019-03-26T21:32:28.101Z,56.57
2019-03-26T21:34:58.202Z,56.91
2019-03-26T21:37:46.988Z,56.91
2019-03-26T21:40:36.245Z,57.49
2019-03-26T21:43:06.314Z,57.43
2019-03-26T21:45:55.152Z,57.32
2019-03-26T21:48:43.834Z,57.51
2019-03-26T21:51:13.872Z,57.51
2019-03-26T21:54:04.432Z,57.96
2019-03-26T21:56:34.483Z,57.96
2019-03-26T21:59:04.611Z,57.80
2019-03-26T22:01:34.733Z,58.10
2019-03-26T22:07:47.301Z,58.17
2019-03-26T22:15:45.432Z,58.47
2019-03-26T22:18:26.085Z,58.69
2019-03-26T22:21:09.290Z,58.69
2019-03-26T22:23:58.090Z,59.10
2019-03-26T22:26:38.719Z,59.01
2019-03-26T22:29:08.886Z,59.01
2019-03-26T22:31:57.746Z,59.21
2019-03-26T22:34:38.659Z,59.21
2019-03-26T22:37:09.387Z,59.17
2019-03-26T22:39:58.113Z,59.29
2019-03-26T22:42:46.867Z,59.38
2019-03-26T22:45:27.590Z,59.35
2019-03-26T22:47:57.795Z,59.35
2019-03-26T22:50:46.704Z,59.29
2019-03-26T22:53:16.750Z,59.29
2019-03-26T22:55:46.849Z,58.84
2019-03-26T22:58:16.935Z,58.79
2019-03-26T23:01:06.097Z,58.76
2019-03-26T23:06:34.429Z,58.60
2019-03-26T23:09:06.903Z,58.60
2019-03-26T23:11:55.580Z,58.70
2019-03-26T23:14:45.028Z,58.70
2019-03-26T23:17:08.354Z,58.70
2019-03-26T23:19:38.307Z,58.49
2019-03-26T23:22:08.244Z,58.36
2019-03-26T23:24:38.312Z,58.44
2019-03-26T23:27:08.414Z,58.24
2019-03-26T23:29:38.340Z,58.08
2019-03-26T23:32:08.473Z,58.04
2019-03-26T23:37:39.248Z,57.81
2019-03-26T23:43:04.348Z,57.52
2019-03-26T23:45:53.349Z,57.21
2019-03-26T23:48:23.302Z,57.17
2019-03-26T23:50:53.261Z,56.87
2019-03-26T23:53:23.205Z,56.79
2019-03-26T23:55:53.258Z,56.56
2019-03-26T23:58:23.183Z,56.47
